createdAt,value
2023-03-28T00:01:34.802Z,10.70
2023-03-28T00:04:07.271Z,11.00
2023-03-28T00:06:41.806Z,13.20
2023-03-28T00:09:14.481Z,14.00
2023-03-28T00:11:47.187Z,13.40
2023-03-28T00:14:19.357Z,12.80
2023-03-28T00:16:52.325Z,12.90
2023-03-28T00:19:24.418Z,11.10
2023-03-28T00:21:57.618Z,11.40
2023-03-28T00:24:30.061Z,12.20
2023-03-28T00:27:02.290Z,12.10
2023-03-28T00:29:34.885Z,12.50
2023-03-28T00:32:07.841Z,12.70
2023-03-28T00:34:40.257Z,13.20
2023-03-28T00:37:17.409Z,10.90
2023-03-28T00:39:51.092Z,9.70
2023-03-28T00:42:25.389Z,9.00
2023-03-28T00:44:59.579Z,9.40
2023-03-28T00:47:45.112Z,9.00
2023-03-28T00:50:21.338Z,7.80
2023-03-28T00:52:59.227Z,8.60
2023-03-28T00:55:37.861Z,8.50
2023-03-28T00:58:12.487Z,7.60
2023-03-28T01:00:46.987Z,8.50
2023-03-28T01:03:22.784Z,7.70
2023-03-28T01:05:56.867Z,7.50
2023-03-28T01:08:39.530Z,8.20
2023-03-28T01:11:13.276Z,8.90
2023-03-28T01:13:49.109Z,8.00
2023-03-28T01:16:23.360Z,8.40
2023-03-28T01:19:02.186Z,8.30
2023-03-28T01:22:17.176Z,8.30
2023-03-28T01:25:31.076Z,7.90
2023-03-28T01:28:09.130Z,10.60
2023-03-28T01:31:05.745Z,9.80
2023-03-28T01:34:19.633Z,9.10
2023-03-28T01:37:06.104Z,8.70
2023-03-28T01:39:58.796Z,8.00
2023-03-28T01:42:42.818Z,7.70
2023-03-28T01:45:20.311Z,8.80
2023-03-28T01:47:59.464Z,7.40
2023-03-28T01:50:37.074Z,7.70
2023-03-28T01:53:18.510Z,7.00
2023-03-28T01:55:55.438Z,8.60
2023-03-28T01:58:32.727Z,7.90
2023-03-28T02:01:16.816Z,6.20
2023-03-28T02:03:52.953Z,6.80
2023-03-28T02:06:39.890Z,7.20
2023-03-28T02:09:19.873Z,7.40
2023-03-28T02:12:17.033Z,7.20
2023-03-28T02:15:18.588Z,6.70
2023-03-28T02:18:16.803Z,7.00
2023-03-28T02:21:16.328Z,7.80
2023-03-28T02:23:57.452Z,8.00
2023-03-28T02:26:48.605Z,31.20
2023-03-28T02:29:33.185Z,15.50
2023-03-28T02:32:36.469Z,7.00
2023-03-28T02:35:10.103Z,7.50
2023-03-28T02:37:54.890Z,6.30
2023-03-28T02:40:42.346Z,6.50
2023-03-28T02:43:43.671Z,7.90
2023-03-28T02:46:29.575Z,10.10
2023-03-28T02:49:24.230Z,10.10
2023-03-28T02:52:09.387Z,9.10
2023-03-28T02:57:42.897Z,13.20
2023-03-28T03:00:19.874Z,10.10
2023-03-28T03:02:54.206Z,13.00
2023-03-28T03:05:26.536Z,8.40
2023-03-28T03:07:58.893Z,16.80
2023-03-28T03:10:31.193Z,10.80
2023-03-28T03:13:03.345Z,12.50
2023-03-28T03:15:35.869Z,9.10
2023-03-28T03:18:23.368Z,8.70
2023-03-28T03:20:55.941Z,9.60
2023-03-28T03:23:28.087Z,7.90
2023-03-28T03:26:04.084Z,7.90
2023-03-28T03:28:46.400Z,7.80
2023-03-28T03:31:19.802Z,8.60
2023-03-28T03:34:03.726Z,8.30
2023-03-28T03:36:40.624Z,8.50
2023-03-28T03:39:12.910Z,11.00
2023-03-28T03:41:45.051Z,10.10
2023-03-28T03:44:17.207Z,8.70
2023-03-28T03:46:49.408Z,10.20
2023-03-28T03:49:21.547Z,11.70
2023-03-28T03:51:53.798Z,12.80
2023-03-28T03:54:26.218Z,10.80
2023-03-28T03:56:58.438Z,10.10
2023-03-28T03:59:30.935Z,13.20
2023-03-28T04:02:03.643Z,13.00
2023-03-28T04:04:49.089Z,10.10
2023-03-28T04:07:29.971Z,10.50
2023-03-28T04:10:02.132Z,13.70
2023-03-28T04:12:40.477Z,14.90
2023-03-28T04:15:13.523Z,12.80
2023-03-28T04:17:45.661Z,12.10
2023-03-28T04:23:10.593Z,8.20
2023-03-28T04:25:43.696Z,11.50
2023-03-28T04:28:19.907Z,16.20
2023-03-28T04:31:04.503Z,12.50
2023-03-28T04:33:45.413Z,11.10
2023-03-28T04:36:19.009Z,11.50
2023-03-28T04:38:58.416Z,13.30
2023-03-28T04:41:50.501Z,19.40
2023-03-28T04:44:34.337Z,20.00
2023-03-28T04:47:13.055Z,17.30
2023-03-28T04:49:45.316Z,18.10
2023-03-28T04:52:18.734Z,18.20
2023-03-28T04:54:52.149Z,17.10
2023-03-28T04:57:28.249Z,19.20
2023-03-28T05:00:17.249Z,15.20
2023-03-28T05:03:18.587Z,12.90
2023-03-28T05:06:00.702Z,12.60
2023-03-28T05:08:32.978Z,10.20
2023-03-28T05:11:05.748Z,15.40
2023-03-28T05:13:38.350Z,23.00
2023-03-28T05:16:16.899Z,29.30
2023-03-28T05:19:15.160Z,37.70
2023-03-28T05:21:57.117Z,22.20
2023-03-28T05:24:29.311Z,19.60
2023-03-28T05:27:01.678Z,42.10
2023-03-28T05:29:33.783Z,255.90
2023-03-28T05:32:06.807Z,39.80
2023-03-28T05:34:39.412Z,33.40
2023-03-28T05:37:11.865Z,100.70
2023-03-28T05:39:50.321Z,76.30
2023-03-28T05:42:24.322Z,61.60
2023-03-28T05:44:56.529Z,61.80
2023-03-28T05:47:29.034Z,53.50
2023-03-28T05:50:02.526Z,17.70
2023-03-28T05:52:35.340Z,11.60
2023-03-28T05:55:11.411Z,12.90
2023-03-28T05:57:44.321Z,17.80
2023-03-28T06:00:19.948Z,11.60
2023-03-28T06:02:54.940Z,13.10
2023-03-28T06:05:36.101Z,12.70
2023-03-28T06:10:42.540Z,12.60
2023-03-28T06:13:35.098Z,9.90
2023-03-28T06:16:10.593Z,9.70
2023-03-28T06:18:42.911Z,12.00
2023-03-28T06:21:15.583Z,15.00
2023-03-28T06:23:51.822Z,11.10
2023-03-28T06:26:31.402Z,13.40
2023-03-28T06:29:03.971Z,15.10
2023-03-28T06:31:47.299Z,18.30
2023-03-28T06:34:19.772Z,19.70
2023-03-28T06:36:57.825Z,18.90
2023-03-28T06:39:32.701Z,17.20
2023-03-28T06:42:05.275Z,23.60
2023-03-28T06:44:44.488Z,16.70
2023-03-28T06:47:24.126Z,14.10
2023-03-28T06:49:56.492Z,14.80
2023-03-28T06:52:43.007Z,22.30
2023-03-28T06:55:16.086Z,20.70
2023-03-28T06:57:48.474Z,19.00
2023-03-28T07:00:31.946Z,12.40
2023-03-28T07:03:23.149Z,9.70
2023-03-28T07:05:55.643Z,15.20
2023-03-28T07:08:28.524Z,40.70
2023-03-28T07:11:01.129Z,20.20
2023-03-28T07:13:34.162Z,20.80
2023-03-28T07:16:15.662Z,26.50
2023-03-28T07:18:48.169Z,21.60
2023-03-28T07:21:27.142Z,10.10
2023-03-28T07:24:01.348Z,18.50
2023-03-28T07:26:40.532Z,12.80
2023-03-28T07:29:14.265Z,14.70
2023-03-28T07:31:46.708Z,16.70
2023-03-28T07:34:20.416Z,11.20
2023-03-28T07:36:53.381Z,9.30
2023-03-28T07:39:43.835Z,12.40
2023-03-28T07:42:19.829Z,10.40
2023-03-28T07:44:52.606Z,11.00
2023-03-28T07:47:25.181Z,9.90
2023-03-28T07:49:57.885Z,7.90
2023-03-28T07:52:31.460Z,9.80
2023-03-28T07:55:04.095Z,12.80
2023-03-28T07:57:40.028Z,6.40
2023-03-28T08:00:25.477Z,3.90
2023-03-28T08:03:19.073Z,5.00
2023-03-28T08:05:52.765Z,4.80
2023-03-28T08:08:26.617Z,3.70
2023-03-28T08:13:45.035Z,5.90
2023-03-28T08:16:24.195Z,4.40
2023-03-28T08:19:10.055Z,6.00
2023-03-28T08:21:50.342Z,4.20
2023-03-28T08:24:34.800Z,4.30
2023-03-28T08:27:15.098Z,5.10
2023-03-28T08:29:49.288Z,2.90
2023-03-28T08:32:22.243Z,4.80
2023-03-28T08:34:55.663Z,3.10
2023-03-28T08:37:28.115Z,2.60
2023-03-28T08:40:01.818Z,2.10
2023-03-28T08:42:58.145Z,4.00
2023-03-28T08:45:47.882Z,2.90
2023-03-28T08:48:27.168Z,4.30
2023-03-28T08:51:04.585Z,4.10
2023-03-28T08:53:43.999Z,3.10
2023-03-28T08:56:17.631Z,2.20
2023-03-28T08:58:59.723Z,2.10
2023-03-28T09:01:34.192Z,1.50
2023-03-28T09:04:07.607Z,3.10
2023-03-28T09:06:45.654Z,6.00
2023-03-28T09:09:38.461Z,5.20
2023-03-28T09:12:41.050Z,10.70
2023-03-28T09:15:31.796Z,28.10
2023-03-28T09:18:22.621Z,9.70
2023-03-28T09:21:01.978Z,7.70
2023-03-28T09:23:55.373Z,17.00
2023-03-28T09:26:49.141Z,14.90
2023-03-28T09:29:27.997Z,3.60
2023-03-28T09:32:04.384Z,6.90
2023-03-28T09:34:46.573Z,7.90
2023-03-28T09:37:36.579Z,4.80
2023-03-28T09:40:20.835Z,11.40
2023-03-28T09:43:20.809Z,6.70
2023-03-28T09:46:19.628Z,2.50
2023-03-28T09:49:05.771Z,15.30
2023-03-28T09:51:41.062Z,3.40
2023-03-28T09:54:14.247Z,8.90
2023-03-28T09:56:47.591Z,1.90
2023-03-28T09:59:32.125Z,4.10
2023-03-28T10:02:30.712Z,4.30
2023-03-28T10:05:22.867Z,1.70
2023-03-28T10:08:07.635Z,9.40
2023-03-28T10:11:02.841Z,5.80
2023-03-28T10:13:41.750Z,11.30
2023-03-28T10:16:18.141Z,3.10
2023-03-28T10:19:25.116Z,4.30
2023-03-28T10:22:08.669Z,6.60
2023-03-28T10:24:46.968Z,13.30
2023-03-28T10:27:25.076Z,16.10
2023-03-28T10:29:59.920Z,16.40
2023-03-28T10:32:36.721Z,7.30
2023-03-28T10:35:31.539Z,10.10
2023-03-28T10:38:18.267Z,8.40
2023-03-28T10:41:20.671Z,8.80
2023-03-28T10:44:33.055Z,3.40
2023-03-28T10:47:16.245Z,5.80
2023-03-28T10:49:56.545Z,4.80
2023-03-28T10:52:38.162Z,6.30
2023-03-28T10:55:17.984Z,6.50
2023-03-28T10:58:17.802Z,8.30
2023-03-28T11:01:02.558Z,13.40
2023-03-28T11:03:58.431Z,18.40
2023-03-28T11:06:37.735Z,17.40
2023-03-28T11:09:21.245Z,12.90
2023-03-28T11:12:32.316Z,17.30
2023-03-28T11:15:17.538Z,14.80
2023-03-28T11:18:04.320Z,12.50
2023-03-28T11:20:46.175Z,13.20
2023-03-28T11:23:41.804Z,18.30
2023-03-28T11:26:42.013Z,6.20
2023-03-28T11:29:53.242Z,3.40
2023-03-28T11:32:31.990Z,4.60
2023-03-28T11:35:14.544Z,2.40
2023-03-28T11:37:57.241Z,2.80
2023-03-28T11:40:36.561Z,3.20
2023-03-28T11:43:16.959Z,6.00
2023-03-28T11:45:55.227Z,3.40
2023-03-28T11:48:31.805Z,13.50
2023-03-28T11:51:13.366Z,8.40
2023-03-28T11:53:56.427Z,7.10
2023-03-28T11:56:50.436Z,7.10
2023-03-28T11:59:49.065Z,4.30
2023-03-28T12:02:38.392Z,14.20
2023-03-28T12:05:22.827Z,4.20
2023-03-28T12:08:04.409Z,3.00
2023-03-28T12:10:38.485Z,1.70
2023-03-28T12:13:22.503Z,3.20
2023-03-28T12:16:10.190Z,8.00
2023-03-28T12:18:47.351Z,5.50
2023-03-28T12:21:43.337Z,5.00
2023-03-28T12:24:26.810Z,5.00
2023-03-28T12:27:17.846Z,4.20
2023-03-28T12:29:59.370Z,6.10
2023-03-28T12:32:44.683Z,2.70
2023-03-28T12:35:25.197Z,2.60
2023-03-28T12:38:24.618Z,5.10
2023-03-28T12:41:07.641Z,9.10
2023-03-28T12:43:47.119Z,12.30
2023-03-28T12:46:28.204Z,4.70
2023-03-28T12:49:06.009Z,3.60
2023-03-28T12:51:43.936Z,5.50
2023-03-28T12:54:30.763Z,8.10
2023-03-28T12:57:18.928Z,19.30
2023-03-28T13:00:20.678Z,19.80
2023-03-28T13:03:27.137Z,10.00
2023-03-28T13:06:06.911Z,2.00
2023-03-28T13:08:51.826Z,1.90
2023-03-28T13:11:31.468Z,1.90
2023-03-28T13:14:21.093Z,1.60
2023-03-28T13:16:59.774Z,2.40
2023-03-28T13:19:51.329Z,1.30
2023-03-28T13:22:32.791Z,2.50
2023-03-28T13:25:27.460Z,1.60
2023-03-28T13:28:01.802Z,1.80
2023-03-28T13:30:34.280Z,1.70
2023-03-28T13:33:26.509Z,1.30
2023-03-28T13:36:22.214Z,2.50
2023-03-28T13:39:07.269Z,1.70
2023-03-28T13:41:59.435Z,4.00
2023-03-28T13:44:46.038Z,4.60
2023-03-28T13:47:25.494Z,7.50
2023-03-28T13:50:04.045Z,6.40
2023-03-28T13:52:36.796Z,5.10
2023-03-28T13:55:20.768Z,6.20
2023-03-28T13:57:53.987Z,13.20
2023-03-28T14:00:29.277Z,19.40
2023-03-28T14:03:05.659Z,15.40
2023-03-28T14:05:46.414Z,10.20
2023-03-28T14:08:26.498Z,12.30
2023-03-28T14:11:00.905Z,5.90
2023-03-28T14:13:33.646Z,3.20
2023-03-28T14:16:11.171Z,4.20
2023-03-28T14:18:48.052Z,1.60
2023-03-28T14:21:24.050Z,1.70
2023-03-28T14:24:01.856Z,20.40
2023-03-28T14:26:38.060Z,2.50
2023-03-28T14:29:14.566Z,6.60
2023-03-28T14:31:48.834Z,7.60
2023-03-28T14:34:25.618Z,1.60
2023-03-28T14:37:03.554Z,3.30
2023-03-28T14:39:39.169Z,5.00
2023-03-28T14:42:17.188Z,4.80
2023-03-28T14:44:54.302Z,2.70
2023-03-28T14:47:32.278Z,4.40
2023-03-28T14:50:05.705Z,6.30
2023-03-28T14:52:41.124Z,4.90
2023-03-28T14:55:19.978Z,5.30
2023-03-28T14:57:54.518Z,7.20
2023-03-28T15:00:34.515Z,4.20
2023-03-28T15:03:13.343Z,15.40
2023-03-28T15:05:48.415Z,8.30
2023-03-28T15:08:28.404Z,14.70
2023-03-28T15:11:03.698Z,12.30
2023-03-28T15:16:16.861Z,12.60
2023-03-28T15:18:56.875Z,12.00
2023-03-28T15:21:29.352Z,10.30
2023-03-28T15:24:04.239Z,1.70
2023-03-28T15:29:10.297Z,1.60
2023-03-28T15:31:43.142Z,2.00
2023-03-28T15:34:23.491Z,2.90
2023-03-28T15:37:02.211Z,7.60
2023-03-28T15:39:37.165Z,5.20
2023-03-28T15:45:25.089Z,41.60
2023-03-28T15:47:58.061Z,12.00
2023-03-28T15:50:36.502Z,15.40
2023-03-28T15:53:14.560Z,4.00
2023-03-28T15:55:48.791Z,9.30
2023-03-28T15:58:23.487Z,12.30
2023-03-28T16:00:56.491Z,12.30
2023-03-28T16:03:34.718Z,20.20
2023-03-28T16:06:32.225Z,13.00
2023-03-28T16:09:19.412Z,12.80
2023-03-28T16:11:56.488Z,13.70
2023-03-28T16:14:49.901Z,20.90
2023-03-28T16:17:47.402Z,14.10
2023-03-28T16:20:31.895Z,17.90
2023-03-28T16:23:09.612Z,17.70
2023-03-28T16:25:42.133Z,13.00
2023-03-28T16:28:19.363Z,24.40
2023-03-28T16:30:53.141Z,12.00
2023-03-28T16:33:26.012Z,16.60
2023-03-28T16:35:59.012Z,38.30
2023-03-28T16:38:31.595Z,26.10
2023-03-28T16:41:04.227Z,38.30
2023-03-28T16:43:37.893Z,25.70
2023-03-28T16:46:12.359Z,33.10
2023-03-28T16:48:45.260Z,25.30
2023-03-28T16:51:17.713Z,24.70
2023-03-28T16:53:50.130Z,24.30
2023-03-28T16:56:26.979Z,23.80
2023-03-28T16:58:59.290Z,22.20
2023-03-28T17:01:31.716Z,25.00
2023-03-28T17:04:04.638Z,29.00
2023-03-28T17:06:37.084Z,25.80
2023-03-28T17:09:09.979Z,32.60
2023-03-28T17:11:43.002Z,24.20
2023-03-28T17:14:15.797Z,15.00
2023-03-28T17:16:48.210Z,20.20
2023-03-28T17:19:23.227Z,14.00
2023-03-28T17:21:56.630Z,13.00
2023-03-28T17:24:30.089Z,11.70
2023-03-28T17:27:02.439Z,12.10
2023-03-28T17:29:34.810Z,10.40
2023-03-28T17:32:08.304Z,14.40
2023-03-28T17:34:40.984Z,12.90
2023-03-28T17:37:13.343Z,15.70
2023-03-28T17:39:46.706Z,13.60
2023-03-28T17:42:19.261Z,11.90
2023-03-28T17:44:54.651Z,11.00
2023-03-28T17:47:27.088Z,8.10
2023-03-28T17:50:00.627Z,9.10
2023-03-28T17:52:33.206Z,12.30
2023-03-28T17:55:06.972Z,9.70
2023-03-28T17:57:39.473Z,13.00
2023-03-28T18:00:14.117Z,20.60
2023-03-28T18:02:48.449Z,10.30
2023-03-28T18:05:30.867Z,11.50
2023-03-28T18:08:04.385Z,4.30
2023-03-28T18:10:39.456Z,4.80
2023-03-28T18:13:11.971Z,1.90
2023-03-28T18:15:44.571Z,3.00
2023-03-28T18:18:17.541Z,2.80
2023-03-28T18:20:51.074Z,3.30
2023-03-28T18:23:23.423Z,5.80
2023-03-28T18:25:55.727Z,5.40
2023-03-28T18:28:28.248Z,8.20
2023-03-28T18:31:09.984Z,15.10
2023-03-28T18:33:44.159Z,7.40
2023-03-28T18:36:16.735Z,7.10
2023-03-28T18:38:50.041Z,16.00
2023-03-28T18:41:22.433Z,20.00
2023-03-28T18:43:54.849Z,13.80
2023-03-28T18:46:29.941Z,30.70
2023-03-28T18:49:03.002Z,18.80
2023-03-28T18:51:36.700Z,12.00
2023-03-28T18:54:09.227Z,7.20
2023-03-28T18:56:41.577Z,3.80
2023-03-28T18:59:15.193Z,2.40
2023-03-28T19:01:51.604Z,2.40
2023-03-28T19:04:27.941Z,2.50
2023-03-28T19:07:00.409Z,3.40
2023-03-28T19:09:32.932Z,3.00
2023-03-28T19:12:05.297Z,3.40
2023-03-28T19:14:37.598Z,6.70
2023-03-28T19:17:09.891Z,14.20
2023-03-28T19:19:42.187Z,13.90
2023-03-28T19:22:14.450Z,12.60
2023-03-28T19:24:46.749Z,24.80
2023-03-28T19:27:19.142Z,112.60
2023-03-28T19:29:51.493Z,198.60
2023-03-28T19:32:24.696Z,137.00
2023-03-28T19:34:57.359Z,104.80
2023-03-28T19:37:29.691Z,58.60
2023-03-28T19:40:05.655Z,42.10
2023-03-28T19:42:38.304Z,64.90
2023-03-28T19:45:12.855Z,81.50
2023-03-28T19:47:45.238Z,76.90
2023-03-28T19:50:17.880Z,88.60
2023-03-28T19:52:50.367Z,46.50
2023-03-28T19:55:22.807Z,31.00
2023-03-28T19:57:57.068Z,17.70
2023-03-28T20:00:29.458Z,10.80
2023-03-28T20:03:03.051Z,18.00
2023-03-28T20:05:44.681Z,17.60
2023-03-28T20:08:18.943Z,18.50
2023-03-28T20:11:58.612Z,17.50
2023-03-28T20:14:34.462Z,33.10
2023-03-28T20:17:07.049Z,23.20
2023-03-28T20:19:40.446Z,19.60
2023-03-28T20:22:12.739Z,21.30
2023-03-28T20:24:45.026Z,21.70
2023-03-28T20:27:18.170Z,21.20
2023-03-28T20:29:50.533Z,22.40
2023-03-28T20:32:22.937Z,18.80
2023-03-28T20:34:55.317Z,13.50
2023-03-28T20:37:28.533Z,18.20
2023-03-28T20:40:10.341Z,15.40
2023-03-28T20:42:42.777Z,10.70
2023-03-28T20:45:22.137Z,8.00
2023-03-28T20:47:57.078Z,7.90
2023-03-28T20:50:34.120Z,9.20
2023-03-28T20:53:08.034Z,14.80
2023-03-28T20:55:40.534Z,11.20
2023-03-28T20:58:12.836Z,11.10
2023-03-28T21:00:46.592Z,13.10
2023-03-28T21:03:19.180Z,27.60
2023-03-28T21:05:53.253Z,22.90
2023-03-28T21:08:28.025Z,14.50
2023-03-28T21:11:00.578Z,20.10
2023-03-28T21:13:33.135Z,21.90
2023-03-28T21:16:05.917Z,12.10
2023-03-28T21:18:38.401Z,18.60
2023-03-28T21:21:12.726Z,13.40
2023-03-28T21:23:46.796Z,6.30
2023-03-28T21:26:21.247Z,12.70
2023-03-28T21:28:54.751Z,30.70
2023-03-28T21:31:29.290Z,19.90
2023-03-28T21:34:02.216Z,11.30
2023-03-28T21:36:34.837Z,12.50
2023-03-28T21:39:07.956Z,44.10
2023-03-28T21:41:40.296Z,18.00
2023-03-28T21:44:12.597Z,7.20
2023-03-28T21:46:44.934Z,13.80
2023-03-28T21:49:18.252Z,16.30
2023-03-28T21:51:50.620Z,26.00
2023-03-28T21:54:23.263Z,23.70
2023-03-28T21:56:55.859Z,38.00
2023-03-28T21:59:28.335Z,35.70
2023-03-28T22:02:01.062Z,25.70
2023-03-28T22:04:33.648Z,10.20
2023-03-28T22:07:06.338Z,15.00
2023-03-28T22:09:39.346Z,24.10
2023-03-28T22:12:11.738Z,74.50
2023-03-28T22:14:44.077Z,9.30
2023-03-28T22:17:16.389Z,7.10
2023-03-28T22:19:50.113Z,8.30
2023-03-28T22:22:28.250Z,6.30
2023-03-28T22:25:00.646Z,9.30
2023-03-28T22:27:34.977Z,7.50
2023-03-28T22:30:11.761Z,38.10
2023-03-28T22:32:44.291Z,11.40
2023-03-28T22:35:16.773Z,10.70
2023-03-28T22:37:49.066Z,32.20
2023-03-28T22:40:22.260Z,11.40
2023-03-28T22:42:55.049Z,10.00
2023-03-28T22:45:27.726Z,6.40
2023-03-28T22:48:03.284Z,5.70
2023-03-28T22:50:35.626Z,6.80
2023-03-28T22:53:08.212Z,6.50
2023-03-28T22:55:41.874Z,5.40
2023-03-28T22:58:15.130Z,5.00
2023-03-28T23:00:47.638Z,6.50
2023-03-28T23:03:20.045Z,9.00
2023-03-28T23:05:55.233Z,11.30
2023-03-28T23:08:28.356Z,6.40
2023-03-28T23:11:00.961Z,8.80
2023-03-28T23:13:33.519Z,5.40
2023-03-28T23:16:07.297Z,12.80
2023-03-28T23:18:39.674Z,6.90
2023-03-28T23:21:12.152Z,6.60
2023-03-28T23:23:46.511Z,8.80
2023-03-28T23:26:19.080Z,6.00
2023-03-28T23:28:51.705Z,8.30
2023-03-28T23:31:24.087Z,5.90
2023-03-28T23:33:56.462Z,6.40
2023-03-28T23:36:30.209Z,7.10
2023-03-28T23:39:02.813Z,8.20
2023-03-28T23:41:35.283Z,5.50
2023-03-28T23:44:07.930Z,5.60
2023-03-28T23:46:40.658Z,5.20
2023-03-28T23:49:12.906Z,6.10
2023-03-28T23:51:46.215Z,6.20
2023-03-28T23:54:18.794Z,5.90
2023-03-28T23:56:51.659Z,5.10
2023-03-28T23:59:25.287Z,5.80
